sensor_id;sensor_type;location;lat;lon;timestamp;P1;durP1;ratioP1;P2;durP2;ratioP2
2546;SDS011;1283;47.982;7.834;2023-08-20T00:02:22;10.40;;;5.95;;
2546;SDS011;1283;47.982;7.834;2023-08-20T00:04:49;14.05;;;6.20;;
2546;SDS011;1283;47.982;7.834;2023-08-20T00:07:17;19.70;;;6.40;;
2546;SDS011;1283;47.982;7.834;2023-08-20T00:09:43;16.45;;;6.22;;
2546;SDS011;1283;47.982;7.834;2023-08-20T00:12:11;11.48;;;5.28;;
2546;SDS011;1283;47.982;7.834;2023-08-20T00:14:54;13.32;;;6.13;;
2546;SDS011;1283;47.982;7.834;2023-08-20T00:17:23;9.02;;;5.68;;
2546;SDS011;1283;47.982;7.834;2023-08-20T00:19:52;9.90;;;5.80;;
2546;SDS011;1283;47.982;7.834;2023-08-20T00:22:19;12.60;;;6.45;;
2546;SDS011;1283;47.982;7.834;2023-08-20T00:24:47;13.55;;;5.60;;
2546;SDS011;1283;47.982;7.834;2023-08-20T00:27:15;9.93;;;6.50;;
2546;SDS011;1283;47.982;7.834;2023-08-20T00:29:42;9.55;;;6.10;;
2546;SDS011;1283;47.982;7.834;2023-08-20T00:32:08;10.48;;;5.72;;
2546;SDS011;1283;47.982;7.834;2023-08-20T00:34:35;12.75;;;5.55;;
2546;SDS011;1283;47.982;7.834;2023-08-20T00:37:01;9.73;;;6.32;;
2546;SDS011;1283;47.982;7.834;2023-08-20T00:39:28;11.90;;;6.00;;
2546;SDS011;1283;47.982;7.834;2023-08-20T00:41:54;11.02;;;5.85;;
2546;SDS011;1283;47.982;7.834;2023-08-20T00:44:22;15.05;;;6.78;;
2546;SDS011;1283;47.982;7.834;2023-08-20T00:46:49;12.75;;;6.63;;
2546;SDS011;1283;47.982;7.834;2023-08-20T00:49:16;11.85;;;7.03;;
2546;SDS011;1283;47.982;7.834;2023-08-20T00:51:43;10.23;;;7.28;;
2546;SDS011;1283;47.982;7.834;2023-08-20T00:54:10;11.98;;;7.00;;
2546;SDS011;1283;47.982;7.834;2023-08-20T00:56:36;10.43;;;6.95;;
2546;SDS011;1283;47.982;7.834;2023-08-20T00:59:04;18.35;;;7.35;;
2546;SDS011;1283;47.982;7.834;2023-08-20T01:01:32;12.27;;;6.97;;
2546;SDS011;1283;47.982;7.834;2023-08-20T01:03:58;13.57;;;6.25;;
2546;SDS011;1283;47.982;7.834;2023-08-20T01:06:31;17.42;;;7.30;;
2546;SDS011;1283;47.982;7.834;2023-08-20T01:09:04;16.90;;;7.57;;
2546;SDS011;1283;47.982;7.834;2023-08-20T01:11:33;14.52;;;7.40;;
2546;SDS011;1283;47.982;7.834;2023-08-20T01:14:13;10.27;;;6.82;;
2546;SDS011;1283;47.982;7.834;2023-08-20T01:19:08;10.15;;;6.78;;
2546;SDS011;1283;47.982;7.834;2023-08-20T01:21:37;9.68;;;6.05;;
2546;SDS011;1283;47.982;7.834;2023-08-20T01:24:09;9.60;;;6.15;;
2546;SDS011;1283;47.982;7.834;2023-08-20T01:26:50;14.40;;;6.25;;
2546;SDS011;1283;47.982;7.834;2023-08-20T01:29:28;11.35;;;6.43;;
2546;SDS011;1283;47.982;7.834;2023-08-20T01:31:55;10.38;;;6.97;;
2546;SDS011;1283;47.982;7.834;2023-08-20T01:34:22;8.50;;;6.43;;
2546;SDS011;1283;47.982;7.834;2023-08-20T01:36:49;11.82;;;6.88;;
2546;SDS011;1283;47.982;7.834;2023-08-20T01:39:15;11.93;;;6.13;;
2546;SDS011;1283;47.982;7.834;2023-08-20T01:41:43;10.07;;;6.10;;
2546;SDS011;1283;47.982;7.834;2023-08-20T01:44:10;11.10;;;5.97;;
2546;SDS011;1283;47.982;7.834;2023-08-20T01:46:37;7.65;;;6.00;;
2546;SDS011;1283;47.982;7.834;2023-08-20T01:49:04;8.82;;;6.18;;
2546;SDS011;1283;47.982;7.834;2023-08-20T01:51:30;10.23;;;6.35;;
2546;SDS011;1283;47.982;7.834;2023-08-20T01:53:57;13.07;;;5.85;;
2546;SDS011;1283;47.982;7.834;2023-08-20T01:56:23;10.13;;;6.07;;
2546;SDS011;1283;47.982;7.834;2023-08-20T01:58:49;10.10;;;6.35;;
2546;SDS011;1283;47.982;7.834;2023-08-20T02:01:16;14.48;;;6.28;;
2546;SDS011;1283;47.982;7.834;2023-08-20T02:03:44;11.23;;;6.82;;
2546;SDS011;1283;47.982;7.834;2023-08-20T02:06:10;13.52;;;6.35;;
2546;SDS011;1283;47.982;7.834;2023-08-20T02:08:36;8.85;;;5.85;;
2546;SDS011;1283;47.982;7.834;2023-08-20T02:11:03;10.05;;;6.03;;
2546;SDS011;1283;47.982;7.834;2023-08-20T02:13:30;11.23;;;5.90;;
2546;SDS011;1283;47.982;7.834;2023-08-20T02:15:57;9.48;;;6.88;;
2546;SDS011;1283;47.982;7.834;2023-08-20T02:18:24;12.73;;;7.40;;
2546;SDS011;1283;47.982;7.834;2023-08-20T02:20:52;10.05;;;6.68;;
2546;SDS011;1283;47.982;7.834;2023-08-20T02:23:18;17.45;;;6.82;;
2546;SDS011;1283;47.982;7.834;2023-08-20T02:25:46;10.88;;;6.38;;
2546;SDS011;1283;47.982;7.834;2023-08-20T02:28:13;16.48;;;6.50;;
2546;SDS011;1283;47.982;7.834;2023-08-20T02:30:40;13.15;;;6.07;;
2546;SDS011;1283;47.982;7.834;2023-08-20T02:33:07;10.38;;;5.88;;
2546;SDS011;1283;47.982;7.834;2023-08-20T02:35:34;10.55;;;5.97;;
2546;SDS011;1283;47.982;7.834;2023-08-20T02:38:02;14.88;;;6.50;;
2546;SDS011;1283;47.982;7.834;2023-08-20T02:40:29;14.07;;;5.82;;
2546;SDS011;1283;47.982;7.834;2023-08-20T02:42:56;12.80;;;5.97;;
2546;SDS011;1283;47.982;7.834;2023-08-20T02:45:22;10.30;;;7.15;;
2546;SDS011;1283;47.982;7.834;2023-08-20T02:47:49;9.25;;;7.03;;
2546;SDS011;1283;47.982;7.834;2023-08-20T02:50:15;11.07;;;6.50;;
2546;SDS011;1283;47.982;7.834;2023-08-20T02:52:42;12.27;;;7.15;;
2546;SDS011;1283;47.982;7.834;2023-08-20T02:55:10;8.00;;;6.35;;
2546;SDS011;1283;47.982;7.834;2023-08-20T02:57:36;17.00;;;6.68;;
2546;SDS011;1283;47.982;7.834;2023-08-20T03:00:03;17.67;;;6.90;;
2546;SDS011;1283;47.982;7.834;2023-08-20T03:02:30;16.10;;;6.32;;
2546;SDS011;1283;47.982;7.834;2023-08-20T03:04:57;11.52;;;6.70;;
2546;SDS011;1283;47.982;7.834;2023-08-20T03:07:23;12.80;;;6.70;;
2546;SDS011;1283;47.982;7.834;2023-08-20T03:09:50;12.93;;;6.45;;
2546;SDS011;1283;47.982;7.834;2023-08-20T03:12:17;9.23;;;6.30;;
2546;SDS011;1283;47.982;7.834;2023-08-20T03:14:44;10.48;;;6.75;;
2546;SDS011;1283;47.982;7.834;2023-08-20T03:17:10;11.13;;;6.40;;
2546;SDS011;1283;47.982;7.834;2023-08-20T03:19:37;14.90;;;6.13;;
2546;SDS011;1283;47.982;7.834;2023-08-20T03:22:20;8.85;;;5.60;;
2546;SDS011;1283;47.982;7.834;2023-08-20T03:24:46;9.05;;;5.97;;
2546;SDS011;1283;47.982;7.834;2023-08-20T03:27:12;8.68;;;6.30;;
2546;SDS011;1283;47.982;7.834;2023-08-20T03:29:40;10.43;;;5.70;;
2546;SDS011;1283;47.982;7.834;2023-08-20T03:32:07;13.27;;;5.68;;
2546;SDS011;1283;47.982;7.834;2023-08-20T03:34:33;8.90;;;5.95;;
2546;SDS011;1283;47.982;7.834;2023-08-20T03:37:00;10.02;;;5.57;;
2546;SDS011;1283;47.982;7.834;2023-08-20T03:39:27;10.18;;;6.68;;
2546;SDS011;1283;47.982;7.834;2023-08-20T03:41:53;16.25;;;5.90;;
2546;SDS011;1283;47.982;7.834;2023-08-20T03:44:19;12.55;;;6.35;;
2546;SDS011;1283;47.982;7.834;2023-08-20T03:46:47;9.52;;;5.40;;
2546;SDS011;1283;47.982;7.834;2023-08-20T03:49:14;8.20;;;5.85;;
2546;SDS011;1283;47.982;7.834;2023-08-20T03:51:40;12.50;;;6.05;;
2546;SDS011;1283;47.982;7.834;2023-08-20T03:54:07;8.65;;;5.53;;
2546;SDS011;1283;47.982;7.834;2023-08-20T03:56:34;8.95;;;5.90;;
2546;SDS011;1283;47.982;7.834;2023-08-20T03:59:01;12.43;;;5.70;;
2546;SDS011;1283;47.982;7.834;2023-08-20T04:01:27;14.05;;;5.78;;
2546;SDS011;1283;47.982;7.834;2023-08-20T04:03:55;11.82;;;5.68;;
2546;SDS011;1283;47.982;7.834;2023-08-20T04:06:22;9.90;;;5.88;;
2546;SDS011;1283;47.982;7.834;2023-08-20T04:08:48;10.68;;;6.13;;
2546;SDS011;1283;47.982;7.834;2023-08-20T04:11:14;13.98;;;6.60;;
2546;SDS011;1283;47.982;7.834;2023-08-20T04:13:41;9.27;;;6.28;;
2546;SDS011;1283;47.982;7.834;2023-08-20T04:16:08;10.93;;;6.35;;
2546;SDS011;1283;47.982;7.834;2023-08-20T04:18:35;13.20;;;6.60;;
2546;SDS011;1283;47.982;7.834;2023-08-20T04:21:02;13.10;;;6.50;;
2546;SDS011;1283;47.982;7.834;2023-08-20T04:23:29;14.60;;;6.50;;
2546;SDS011;1283;47.982;7.834;2023-08-20T04:25:55;10.32;;;6.53;;
2546;SDS011;1283;47.982;7.834;2023-08-20T04:28:22;8.57;;;6.00;;
2546;SDS011;1283;47.982;7.834;2023-08-20T04:30:48;11.88;;;6.50;;
2546;SDS011;1283;47.982;7.834;2023-08-20T04:33:15;9.00;;;6.57;;
2546;SDS011;1283;47.982;7.834;2023-08-20T04:35:41;13.40;;;6.18;;
2546;SDS011;1283;47.982;7.834;2023-08-20T04:38:09;13.50;;;6.53;;
2546;SDS011;1283;47.982;7.834;2023-08-20T04:40:35;9.00;;;6.40;;
2546;SDS011;1283;47.982;7.834;2023-08-20T04:43:02;10.73;;;6.15;;
2546;SDS011;1283;47.982;7.834;2023-08-20T04:45:29;11.98;;;5.95;;
2546;SDS011;1283;47.982;7.834;2023-08-20T04:47:55;11.05;;;6.15;;
2546;SDS011;1283;47.982;7.834;2023-08-20T04:50:21;15.05;;;6.45;;
2546;SDS011;1283;47.982;7.834;2023-08-20T04:52:48;13.05;;;6.32;;
2546;SDS011;1283;47.982;7.834;2023-08-20T04:55:17;11.55;;;6.43;;
2546;SDS011;1283;47.982;7.834;2023-08-20T04:57:43;9.55;;;6.25;;
2546;SDS011;1283;47.982;7.834;2023-08-20T05:00:10;8.63;;;5.85;;
2546;SDS011;1283;47.982;7.834;2023-08-20T05:02:37;10.77;;;6.25;;
2546;SDS011;1283;47.982;7.834;2023-08-20T05:05:04;10.45;;;6.78;;
2546;SDS011;1283;47.982;7.834;2023-08-20T05:07:31;13.45;;;6.45;;
2546;SDS011;1283;47.982;7.834;2023-08-20T05:09:57;10.57;;;5.80;;
2546;SDS011;1283;47.982;7.834;2023-08-20T05:12:25;10.57;;;5.70;;
2546;SDS011;1283;47.982;7.834;2023-08-20T05:14:51;10.60;;;5.70;;
2546;SDS011;1283;47.982;7.834;2023-08-20T05:17:18;7.85;;;5.82;;
2546;SDS011;1283;47.982;7.834;2023-08-20T05:19:44;12.43;;;6.65;;
2546;SDS011;1283;47.982;7.834;2023-08-20T05:22:11;14.02;;;6.28;;
2546;SDS011;1283;47.982;7.834;2023-08-20T05:24:37;10.95;;;6.10;;
2546;SDS011;1283;47.982;7.834;2023-08-20T05:27:05;11.80;;;6.20;;
2546;SDS011;1283;47.982;7.834;2023-08-20T05:29:34;11.45;;;6.50;;
2546;SDS011;1283;47.982;7.834;2023-08-20T05:32:00;11.65;;;6.15;;
2546;SDS011;1283;47.982;7.834;2023-08-20T05:34:27;15.50;;;7.22;;
2546;SDS011;1283;47.982;7.834;2023-08-20T05:36:53;17.10;;;5.95;;
2546;SDS011;1283;47.982;7.834;2023-08-20T05:39:20;12.90;;;6.60;;
2546;SDS011;1283;47.982;7.834;2023-08-20T05:41:46;10.50;;;5.80;;
2546;SDS011;1283;47.982;7.834;2023-08-20T05:44:13;8.77;;;6.40;;
2546;SDS011;1283;47.982;7.834;2023-08-20T05:46:40;15.35;;;5.72;;
2546;SDS011;1283;47.982;7.834;2023-08-20T05:49:07;12.05;;;5.80;;
2546;SDS011;1283;47.982;7.834;2023-08-20T05:51:33;11.57;;;7.05;;
2546;SDS011;1283;47.982;7.834;2023-08-20T05:54:00;11.27;;;5.88;;
2546;SDS011;1283;47.982;7.834;2023-08-20T05:56:26;15.90;;;5.97;;
2546;SDS011;1283;47.982;7.834;2023-08-20T05:58:52;10.90;;;4.80;;
2546;SDS011;1283;47.982;7.834;2023-08-20T06:01:19;9.93;;;5.07;;
2546;SDS011;1283;47.982;7.834;2023-08-20T06:03:47;11.55;;;4.97;;
2546;SDS011;1283;47.982;7.834;2023-08-20T06:06:13;8.15;;;5.13;;
2546;SDS011;1283;47.982;7.834;2023-08-20T06:08:39;11.30;;;4.90;;
2546;SDS011;1283;47.982;7.834;2023-08-20T06:11:06;8.88;;;4.90;;
2546;SDS011;1283;47.982;7.834;2023-08-20T06:13:32;9.27;;;4.65;;
2546;SDS011;1283;47.982;7.834;2023-08-20T06:15:58;8.73;;;4.60;;
2546;SDS011;1283;47.982;7.834;2023-08-20T06:18:25;10.73;;;4.38;;
2546;SDS011;1283;47.982;7.834;2023-08-20T06:20:53;10.60;;;4.97;;
2546;SDS011;1283;47.982;7.834;2023-08-20T06:23:19;7.97;;;4.80;;
2546;SDS011;1283;47.982;7.834;2023-08-20T06:25:45;8.25;;;4.50;;
2546;SDS011;1283;47.982;7.834;2023-08-20T06:28:12;9.65;;;4.72;;
2546;SDS011;1283;47.982;7.834;2023-08-20T06:30:38;8.77;;;4.95;;
2546;SDS011;1283;47.982;7.834;2023-08-20T06:33:05;10.82;;;4.97;;
2546;SDS011;1283;47.982;7.834;2023-08-20T06:35:31;20.45;;;5.25;;
2546;SDS011;1283;47.982;7.834;2023-08-20T06:38:00;9.30;;;4.60;;
2546;SDS011;1283;47.982;7.834;2023-08-20T06:40:27;12.05;;;5.05;;
2546;SDS011;1283;47.982;7.834;2023-08-20T06:42:53;11.55;;;5.53;;
2546;SDS011;1283;47.982;7.834;2023-08-20T06:45:19;6.18;;;4.85;;
2546;SDS011;1283;47.982;7.834;2023-08-20T06:47:46;11.57;;;5.03;;
2546;SDS011;1283;47.982;7.834;2023-08-20T06:50:12;9.35;;;5.22;;
2546;SDS011;1283;47.982;7.834;2023-08-20T06:52:39;11.13;;;5.28;;
2546;SDS011;1283;47.982;7.834;2023-08-20T06:55:07;7.68;;;5.38;;
2546;SDS011;1283;47.982;7.834;2023-08-20T06:57:34;11.95;;;5.38;;
2546;SDS011;1283;47.982;7.834;2023-08-20T07:00:00;9.73;;;5.38;;
2546;SDS011;1283;47.982;7.834;2023-08-20T07:02:27;11.07;;;5.60;;
2546;SDS011;1283;47.982;7.834;2023-08-20T07:04:54;11.75;;;5.50;;
2546;SDS011;1283;47.982;7.834;2023-08-20T07:07:20;8.63;;;5.50;;
2546;SDS011;1283;47.982;7.834;2023-08-20T07:09:47;12.32;;;6.15;;
2546;SDS011;1283;47.982;7.834;2023-08-20T07:12:15;8.68;;;5.80;;
2546;SDS011;1283;47.982;7.834;2023-08-20T07:14:41;9.13;;;5.65;;
2546;SDS011;1283;47.982;7.834;2023-08-20T07:17:07;16.05;;;5.47;;
2546;SDS011;1283;47.982;7.834;2023-08-20T07:19:35;13.13;;;6.25;;
2546;SDS011;1283;47.982;7.834;2023-08-20T07:22:02;12.98;;;6.10;;
2546;SDS011;1283;47.982;7.834;2023-08-20T07:24:29;9.07;;;5.80;;
2546;SDS011;1283;47.982;7.834;2023-08-20T07:26:59;8.48;;;5.47;;
2546;SDS011;1283;47.982;7.834;2023-08-20T07:29:29;8.48;;;5.40;;
2546;SDS011;1283;47.982;7.834;2023-08-20T07:31:55;11.85;;;5.68;;
2546;SDS011;1283;47.982;7.834;2023-08-20T07:34:21;10.75;;;5.55;;
2546;SDS011;1283;47.982;7.834;2023-08-20T07:36:48;8.98;;;5.57;;
2546;SDS011;1283;47.982;7.834;2023-08-20T07:39:14;10.18;;;4.88;;
2546;SDS011;1283;47.982;7.834;2023-08-20T07:41:41;10.48;;;6.00;;
2546;SDS011;1283;47.982;7.834;2023-08-20T07:44:08;12.20;;;5.10;;
2546;SDS011;1283;47.982;7.834;2023-08-20T07:46:36;6.88;;;5.50;;
2546;SDS011;1283;47.982;7.834;2023-08-20T07:49:02;12.60;;;5.55;;
2546;SDS011;1283;47.982;7.834;2023-08-20T07:51:29;10.98;;;5.93;;
2546;SDS011;1283;47.982;7.834;2023-08-20T07:53:55;8.65;;;5.68;;
2546;SDS011;1283;47.982;7.834;2023-08-20T07:56:23;8.65;;;6.20;;
2546;SDS011;1283;47.982;7.834;2023-08-20T07:58:49;11.02;;;4.90;;
2546;SDS011;1283;47.982;7.834;2023-08-20T08:01:16;10.63;;;6.05;;
2546;SDS011;1283;47.982;7.834;2023-08-20T08:03:44;11.57;;;5.65;;
2546;SDS011;1283;47.982;7.834;2023-08-20T08:06:10;7.43;;;5.68;;
2546;SDS011;1283;47.982;7.834;2023-08-20T08:08:37;9.60;;;5.68;;
2546;SDS011;1283;47.982;7.834;2023-08-20T08:11:04;10.15;;;5.90;;
2546;SDS011;1283;47.982;7.834;2023-08-20T08:13:30;15.63;;;5.88;;
2546;SDS011;1283;47.982;7.834;2023-08-20T08:15:56;7.57;;;5.65;;
2546;SDS011;1283;47.982;7.834;2023-08-20T08:18:23;8.85;;;6.18;;
2546;SDS011;1283;47.982;7.834;2023-08-20T08:20:51;12.15;;;6.22;;
2546;SDS011;1283;47.982;7.834;2023-08-20T08:23:18;9.93;;;5.82;;
2546;SDS011;1283;47.982;7.834;2023-08-20T08:25:44;8.93;;;6.93;;
2546;SDS011;1283;47.982;7.834;2023-08-20T08:28:11;9.88;;;6.13;;
2546;SDS011;1283;47.982;7.834;2023-08-20T08:30:37;8.85;;;6.20;;
2546;SDS011;1283;47.982;7.834;2023-08-20T08:33:04;8.40;;;5.75;;
2546;SDS011;1283;47.982;7.834;2023-08-20T08:35:31;12.95;;;7.13;;
2546;SDS011;1283;47.982;7.834;2023-08-20T08:37:59;17.23;;;6.57;;
2546;SDS011;1283;47.982;7.834;2023-08-20T08:40:25;16.45;;;6.40;;
2546;SDS011;1283;47.982;7.834;2023-08-20T08:42:54;9.88;;;6.60;;
2546;SDS011;1283;47.982;7.834;2023-08-20T08:45:21;13.35;;;5.65;;
2546;SDS011;1283;47.982;7.834;2023-08-20T08:47:47;7.95;;;6.00;;
2546;SDS011;1283;47.982;7.834;2023-08-20T08:50:15;19.33;;;6.40;;
2546;SDS011;1283;47.982;7.834;2023-08-20T08:52:41;12.45;;;6.72;;
2546;SDS011;1283;47.982;7.834;2023-08-20T08:55:09;26.23;;;8.18;;
2546;SDS011;1283;47.982;7.834;2023-08-20T08:57:36;12.98;;;6.78;;
2546;SDS011;1283;47.982;7.834;2023-08-20T09:00:03;18.05;;;7.22;;
2546;SDS011;1283;47.982;7.834;2023-08-20T09:02:31;19.95;;;7.15;;
2546;SDS011;1283;47.982;7.834;2023-08-20T09:04:58;12.23;;;6.85;;
2546;SDS011;1283;47.982;7.834;2023-08-20T09:07:24;14.75;;;6.93;;
2546;SDS011;1283;47.982;7.834;2023-08-20T09:09:50;14.80;;;7.05;;
2546;SDS011;1283;47.982;7.834;2023-08-20T09:12:24;13.05;;;6.82;;
2546;SDS011;1283;47.982;7.834;2023-08-20T09:14:52;12.48;;;6.82;;
2546;SDS011;1283;47.982;7.834;2023-08-20T09:17:19;10.57;;;6.28;;
2546;SDS011;1283;47.982;7.834;2023-08-20T09:19:46;13.75;;;6.72;;
2546;SDS011;1283;47.982;7.834;2023-08-20T09:22:12;12.75;;;6.38;;
2546;SDS011;1283;47.982;7.834;2023-08-20T09:24:40;12.18;;;6.40;;
2546;SDS011;1283;47.982;7.834;2023-08-20T09:27:08;9.90;;;6.90;;
2546;SDS011;1283;47.982;7.834;2023-08-20T09:29:43;10.93;;;6.22;;
2546;SDS011;1283;47.982;7.834;2023-08-20T09:32:10;8.13;;;6.20;;
2546;SDS011;1283;47.982;7.834;2023-08-20T09:34:39;11.60;;;6.55;;
2546;SDS011;1283;47.982;7.834;2023-08-20T09:37:09;12.18;;;5.75;;
2546;SDS011;1283;47.982;7.834;2023-08-20T09:39:36;10.10;;;6.38;;
2546;SDS011;1283;47.982;7.834;2023-08-20T09:42:03;13.52;;;5.88;;
2546;SDS011;1283;47.982;7.834;2023-08-20T09:44:32;11.02;;;5.88;;
2546;SDS011;1283;47.982;7.834;2023-08-20T09:47:01;7.03;;;5.53;;
2546;SDS011;1283;47.982;7.834;2023-08-20T09:49:28;12.50;;;6.43;;
2546;SDS011;1283;47.982;7.834;2023-08-20T09:51:56;10.43;;;5.53;;
2546;SDS011;1283;47.982;7.834;2023-08-20T09:54:26;9.68;;;6.13;;
2546;SDS011;1283;47.982;7.834;2023-08-20T09:56:54;9.65;;;5.78;;
2546;SDS011;1283;47.982;7.834;2023-08-20T09:59:25;10.90;;;6.10;;
2546;SDS011;1283;47.982;7.834;2023-08-20T10:01:52;13.05;;;5.85;;
2546;SDS011;1283;47.982;7.834;2023-08-20T10:04:20;14.50;;;6.20;;
2546;SDS011;1283;47.982;7.834;2023-08-20T10:06:47;13.25;;;5.70;;
2546;SDS011;1283;47.982;7.834;2023-08-20T10:09:14;10.05;;;6.00;;
2546;SDS011;1283;47.982;7.834;2023-08-20T10:11:40;8.77;;;6.15;;
2546;SDS011;1283;47.982;7.834;2023-08-20T10:14:07;13.85;;;6.18;;
2546;SDS011;1283;47.982;7.834;2023-08-20T10:16:33;10.82;;;6.03;;
2546;SDS011;1283;47.982;7.834;2023-08-20T10:19:01;10.63;;;6.43;;
2546;SDS011;1283;47.982;7.834;2023-08-20T10:21:29;12.02;;;6.40;;
2546;SDS011;1283;47.982;7.834;2023-08-20T10:23:56;14.98;;;6.03;;
2546;SDS011;1283;47.982;7.834;2023-08-20T10:26:22;8.30;;;5.35;;
2546;SDS011;1283;47.982;7.834;2023-08-20T10:28:49;8.65;;;6.20;;
2546;SDS011;1283;47.982;7.834;2023-08-20T10:31:16;7.65;;;6.00;;
2546;SDS011;1283;47.982;7.834;2023-08-20T10:33:48;11.93;;;5.70;;
2546;SDS011;1283;47.982;7.834;2023-08-20T10:36:16;9.73;;;5.68;;
2546;SDS011;1283;47.982;7.834;2023-08-20T10:38:49;14.77;;;5.70;;
2546;SDS011;1283;47.982;7.834;2023-08-20T10:41:15;17.30;;;5.97;;
2546;SDS011;1283;47.982;7.834;2023-08-20T10:43:46;11.00;;;6.55;;
2546;SDS011;1283;47.982;7.834;2023-08-20T10:46:13;7.85;;;5.82;;
2546;SDS011;1283;47.982;7.834;2023-08-20T10:48:42;13.23;;;6.45;;
2546;SDS011;1283;47.982;7.834;2023-08-20T10:51:09;13.82;;;6.05;;
2546;SDS011;1283;47.982;7.834;2023-08-20T10:53:36;11.95;;;5.90;;
2546;SDS011;1283;47.982;7.834;2023-08-20T10:56:14;14.23;;;5.97;;
2546;SDS011;1283;47.982;7.834;2023-08-20T10:58:41;8.95;;;5.57;;
2546;SDS011;1283;47.982;7.834;2023-08-20T11:01:12;14.75;;;6.35;;
2546;SDS011;1283;47.982;7.834;2023-08-20T11:03:43;8.65;;;5.18;;
2546;SDS011;1283;47.982;7.834;2023-08-20T11:06:10;10.13;;;5.80;;
2546;SDS011;1283;47.982;7.834;2023-08-20T11:08:37;7.35;;;5.50;;
2546;SDS011;1283;47.982;7.834;2023-08-20T11:11:04;8.82;;;6.25;;
2546;SDS011;1283;47.982;7.834;2023-08-20T11:13:33;14.02;;;5.50;;
2546;SDS011;1283;47.982;7.834;2023-08-20T11:16:00;11.23;;;5.57;;
2546;SDS011;1283;47.982;7.834;2023-08-20T11:18:27;8.48;;;5.55;;
2546;SDS011;1283;47.982;7.834;2023-08-20T11:20:54;15.90;;;5.80;;
2546;SDS011;1283;47.982;7.834;2023-08-20T11:23:21;9.88;;;5.28;;
2546;SDS011;1283;47.982;7.834;2023-08-20T11:25:47;9.68;;;5.32;;
2546;SDS011;1283;47.982;7.834;2023-08-20T11:28:14;10.00;;;5.50;;
2546;SDS011;1283;47.982;7.834;2023-08-20T11:30:42;12.52;;;6.07;;
2546;SDS011;1283;47.982;7.834;2023-08-20T11:33:08;12.38;;;5.68;;
2546;SDS011;1283;47.982;7.834;2023-08-20T11:35:35;8.07;;;5.28;;
2546;SDS011;1283;47.982;7.834;2023-08-20T11:38:02;9.43;;;5.45;;
2546;SDS011;1283;47.982;7.834;2023-08-20T11:40:29;8.77;;;5.13;;
2546;SDS011;1283;47.982;7.834;2023-08-20T11:42:56;9.15;;;5.95;;
2546;SDS011;1283;47.982;7.834;2023-08-20T11:45:22;13.05;;;5.20;;
2546;SDS011;1283;47.982;7.834;2023-08-20T11:47:55;16.08;;;5.40;;
2546;SDS011;1283;47.982;7.834;2023-08-20T11:50:21;15.95;;;5.65;;
2546;SDS011;1283;47.982;7.834;2023-08-20T11:52:48;9.27;;;5.18;;
2546;SDS011;1283;47.982;7.834;2023-08-20T11:55:14;14.35;;;5.90;;
2546;SDS011;1283;47.982;7.834;2023-08-20T11:57:49;15.27;;;6.15;;
2546;SDS011;1283;47.982;7.834;2023-08-20T12:00:23;11.73;;;5.70;;
2546;SDS011;1283;47.982;7.834;2023-08-20T12:02:53;8.38;;;6.20;;
2546;SDS011;1283;47.982;7.834;2023-08-20T12:05:21;9.35;;;5.68;;
2546;SDS011;1283;47.982;7.834;2023-08-20T12:07:55;12.27;;;6.15;;
2546;SDS011;1283;47.982;7.834;2023-08-20T12:10:22;8.10;;;6.18;;
2546;SDS011;1283;47.982;7.834;2023-08-20T12:12:49;9.32;;;5.82;;
2546;SDS011;1283;47.982;7.834;2023-08-20T12:15:16;10.85;;;5.75;;
2546;SDS011;1283;47.982;7.834;2023-08-20T12:17:42;10.52;;;5.45;;
2546;SDS011;1283;47.982;7.834;2023-08-20T12:20:10;15.10;;;5.80;;
2546;SDS011;1283;47.982;7.834;2023-08-20T12:22:37;11.75;;;5.15;;
2546;SDS011;1283;47.982;7.834;2023-08-20T12:25:04;9.50;;;6.10;;
2546;SDS011;1283;47.982;7.834;2023-08-20T12:27:31;11.90;;;5.53;;
2546;SDS011;1283;47.982;7.834;2023-08-20T12:29:57;11.63;;;6.20;;
2546;SDS011;1283;47.982;7.834;2023-08-20T12:32:24;17.05;;;5.50;;
2546;SDS011;1283;47.982;7.834;2023-08-20T12:34:50;14.15;;;6.20;;
2546;SDS011;1283;47.982;7.834;2023-08-20T12:37:18;13.77;;;6.18;;
2546;SDS011;1283;47.982;7.834;2023-08-20T12:39:44;8.25;;;5.72;;
2546;SDS011;1283;47.982;7.834;2023-08-20T12:42:11;15.50;;;6.35;;
2546;SDS011;1283;47.982;7.834;2023-08-20T12:44:37;11.77;;;5.97;;
2546;SDS011;1283;47.982;7.834;2023-08-20T12:47:04;18.63;;;5.95;;
2546;SDS011;1283;47.982;7.834;2023-08-20T12:49:30;15.15;;;6.00;;
2546;SDS011;1283;47.982;7.834;2023-08-20T12:51:57;7.57;;;5.55;;
2546;SDS011;1283;47.982;7.834;2023-08-20T12:54:25;10.85;;;5.63;;
2546;SDS011;1283;47.982;7.834;2023-08-20T12:56:51;17.30;;;6.10;;
2546;SDS011;1283;47.982;7.834;2023-08-20T12:59:18;11.02;;;5.53;;
2546;SDS011;1283;47.982;7.834;2023-08-20T13:01:44;8.23;;;5.53;;
2546;SDS011;1283;47.982;7.834;2023-08-20T13:04:12;11.23;;;5.55;;
2546;SDS011;1283;47.982;7.834;2023-08-20T13:06:39;10.55;;;5.10;;
2546;SDS011;1283;47.982;7.834;2023-08-20T13:09:07;18.73;;;5.85;;
2546;SDS011;1283;47.982;7.834;2023-08-20T13:11:36;13.07;;;5.35;;
2546;SDS011;1283;47.982;7.834;2023-08-20T13:14:04;16.35;;;5.95;;
2546;SDS011;1283;47.982;7.834;2023-08-20T13:16:31;8.30;;;5.30;;
2546;SDS011;1283;47.982;7.834;2023-08-20T13:18:58;11.32;;;5.38;;
2546;SDS011;1283;47.982;7.834;2023-08-20T13:21:25;13.15;;;5.28;;
2546;SDS011;1283;47.982;7.834;2023-08-20T13:23:51;7.57;;;5.15;;
2546;SDS011;1283;47.982;7.834;2023-08-20T13:26:18;9.15;;;5.05;;
2546;SDS011;1283;47.982;7.834;2023-08-20T13:28:48;7.93;;;4.82;;
2546;SDS011;1283;47.982;7.834;2023-08-20T13:31:15;13.45;;;4.97;;
2546;SDS011;1283;47.982;7.834;2023-08-20T13:33:41;7.75;;;4.68;;
2546;SDS011;1283;47.982;7.834;2023-08-20T13:36:08;12.35;;;4.47;;
2546;SDS011;1283;47.982;7.834;2023-08-20T13:38:34;12.48;;;4.82;;
2546;SDS011;1283;47.982;7.834;2023-08-20T13:41:01;14.20;;;4.57;;
2546;SDS011;1283;47.982;7.834;2023-08-20T13:43:27;8.00;;;5.05;;
2546;SDS011;1283;47.982;7.834;2023-08-20T13:45:55;11.00;;;5.05;;
2546;SDS011;1283;47.982;7.834;2023-08-20T13:48:21;9.40;;;4.80;;
2546;SDS011;1283;47.982;7.834;2023-08-20T13:50:48;12.85;;;5.22;;
2546;SDS011;1283;47.982;7.834;2023-08-20T13:53:14;9.73;;;5.00;;
2546;SDS011;1283;47.982;7.834;2023-08-20T13:55:41;14.20;;;4.95;;
2546;SDS011;1283;47.982;7.834;2023-08-20T13:58:08;9.18;;;4.85;;
2546;SDS011;1283;47.982;7.834;2023-08-20T14:00:34;10.30;;;4.93;;
2546;SDS011;1283;47.982;7.834;2023-08-20T14:03:02;11.82;;;5.78;;
2546;SDS011;1283;47.982;7.834;2023-08-20T14:05:29;9.48;;;6.00;;
2546;SDS011;1283;47.982;7.834;2023-08-20T14:07:56;7.07;;;4.68;;
2546;SDS011;1283;47.982;7.834;2023-08-20T14:10:23;9.68;;;5.00;;
2546;SDS011;1283;47.982;7.834;2023-08-20T14:12:49;13.93;;;5.20;;
2546;SDS011;1283;47.982;7.834;2023-08-20T14:15:16;13.95;;;4.85;;
2546;SDS011;1283;47.982;7.834;2023-08-20T14:17:43;7.20;;;5.78;;
2546;SDS011;1283;47.982;7.834;2023-08-20T14:20:11;13.88;;;5.70;;
2546;SDS011;1283;47.982;7.834;2023-08-20T14:22:39;7.57;;;5.32;;
2546;SDS011;1283;47.982;7.834;2023-08-20T14:25:05;17.90;;;5.07;;
2546;SDS011;1283;47.982;7.834;2023-08-20T14:27:32;15.48;;;5.40;;
2546;SDS011;1283;47.982;7.834;2023-08-20T14:29:58;11.57;;;5.78;;
2546;SDS011;1283;47.982;7.834;2023-08-20T14:32:25;19.45;;;5.18;;
2546;SDS011;1283;47.982;7.834;2023-08-20T14:34:51;9.88;;;5.15;;
2546;SDS011;1283;47.982;7.834;2023-08-20T14:37:19;8.68;;;5.53;;
2546;SDS011;1283;47.982;7.834;2023-08-20T14:39:46;10.57;;;5.28;;
2546;SDS011;1283;47.982;7.834;2023-08-20T14:42:13;10.00;;;5.32;;
2546;SDS011;1283;47.982;7.834;2023-08-20T14:44:40;12.35;;;5.40;;
2546;SDS011;1283;47.982;7.834;2023-08-20T14:47:07;17.35;;;5.47;;
2546;SDS011;1283;47.982;7.834;2023-08-20T14:49:33;11.85;;;5.28;;
2546;SDS011;1283;47.982;7.834;2023-08-20T14:52:01;10.52;;;5.30;;
2546;SDS011;1283;47.982;7.834;2023-08-20T14:54:29;8.52;;;5.35;;
2546;SDS011;1283;47.982;7.834;2023-08-20T14:56:55;13.50;;;5.07;;
2546;SDS011;1283;47.982;7.834;2023-08-20T14:59:24;12.50;;;5.60;;
2546;SDS011;1283;47.982;7.834;2023-08-20T15:01:51;11.18;;;4.95;;
2546;SDS011;1283;47.982;7.834;2023-08-20T15:04:17;6.07;;;5.13;;
2546;SDS011;1283;47.982;7.834;2023-08-20T15:06:44;11.60;;;4.70;;
2546;SDS011;1283;47.982;7.834;2023-08-20T15:09:11;11.30;;;5.00;;